createdAt,value
2022-07-29T00:01:05.627Z,22.73
2022-07-29T00:03:33.136Z,22.80
2022-07-29T00:06:00.898Z,22.86
2022-07-29T00:08:28.156Z,22.79
2022-07-29T00:10:55.535Z,22.78
2022-07-29T00:13:32.249Z,22.82
2022-07-29T00:16:04.558Z,22.87
2022-07-29T00:18:32.969Z,22.84
2022-07-29T00:21:00.625Z,22.86
2022-07-29T00:23:27.809Z,22.85
2022-07-29T00:25:54.968Z,22.78
2022-07-29T00:28:22.359Z,22.74
2022-07-29T00:30:49.432Z,22.85
2022-07-29T00:33:16.536Z,22.82
2022-07-29T00:35:47.319Z,22.77
2022-07-29T00:38:15.878Z,22.76
2022-07-29T00:40:44.342Z,22.75
2022-07-29T00:43:13.464Z,22.76
2022-07-29T00:45:41.211Z,22.74
2022-07-29T00:48:09.719Z,22.79
2022-07-29T00:50:37.544Z,22.77
2022-07-29T00:53:06.450Z,22.72
2022-07-29T00:55:34.096Z,22.71
2022-07-29T00:58:01.432Z,22.77
2022-07-29T01:00:31.576Z,22.67
2022-07-29T01:02:59.664Z,22.71
2022-07-29T01:05:49.814Z,22.71
2022-07-29T01:08:16.560Z,22.75
2022-07-29T01:10:44.128Z,22.69
2022-07-29T01:13:11.636Z,22.68
2022-07-29T01:15:49.275Z,22.72
2022-07-29T01:18:37.082Z,22.73
2022-07-29T01:21:26.832Z,22.72
2022-07-29T01:24:12.936Z,22.71
2022-07-29T01:26:43.604Z,22.73
2022-07-29T01:29:36.255Z,22.73
2022-07-29T01:32:28.864Z,22.64
2022-07-29T01:35:20.309Z,22.62
2022-07-29T01:38:02.940Z,22.62
2022-07-29T01:40:44.488Z,22.68
2022-07-29T01:43:15.468Z,22.64
2022-07-29T01:45:54.332Z,22.60
2022-07-29T01:48:32.178Z,22.53
2022-07-29T01:51:14.490Z,22.59
2022-07-29T01:53:45.746Z,22.55
2022-07-29T01:56:14.613Z,22.57
2022-07-29T01:58:42.862Z,22.54
2022-07-29T02:01:10.958Z,22.43
2022-07-29T02:03:39.151Z,22.42
2022-07-29T02:06:08.346Z,22.44
2022-07-29T02:08:36.998Z,22.43
2022-07-29T02:11:05.558Z,22.41
2022-07-29T02:13:33.286Z,22.38
2022-07-29T02:16:01.656Z,22.38
2022-07-29T02:18:29.674Z,22.39
2022-07-29T02:20:57.953Z,22.35
2022-07-29T02:23:25.518Z,22.36
2022-07-29T02:25:56.532Z,22.28
2022-07-29T02:28:25.829Z,22.29
2022-07-29T02:30:54.775Z,22.24
2022-07-29T02:33:22.566Z,22.24
2022-07-29T02:35:49.893Z,22.26
2022-07-29T02:38:36.700Z,22.28
2022-07-29T02:41:09.270Z,22.19
2022-07-29T02:43:36.978Z,22.08
2022-07-29T02:46:06.045Z,22.07
2022-07-29T02:49:09.584Z,22.09
2022-07-29T02:51:56.394Z,22.10
2022-07-29T02:54:28.833Z,22.01
2022-07-29T02:56:58.808Z,21.98
2022-07-29T02:59:29.025Z,22.03
2022-07-29T03:01:57.039Z,22.03
2022-07-29T03:04:26.428Z,21.99
2022-07-29T03:06:54.236Z,22.00
2022-07-29T03:09:22.133Z,21.95
2022-07-29T03:11:51.050Z,21.91
2022-07-29T03:14:20.545Z,21.98
2022-07-29T03:16:48.426Z,21.86
2022-07-29T03:19:15.844Z,21.90
2022-07-29T03:21:43.334Z,21.89
2022-07-29T03:24:11.070Z,22.00
2022-07-29T03:26:38.387Z,22.00
2022-07-29T03:29:05.908Z,22.00
2022-07-29T03:31:34.283Z,21.92
2022-07-29T03:34:01.441Z,21.92
2022-07-29T03:36:28.809Z,21.87
2022-07-29T03:38:56.066Z,21.87
2022-07-29T03:41:23.766Z,21.80
2022-07-29T03:43:52.990Z,21.77
2022-07-29T03:46:22.406Z,21.76
2022-07-29T03:48:52.093Z,21.83
2022-07-29T03:51:19.907Z,21.80
2022-07-29T03:54:07.892Z,21.75
2022-07-29T03:56:40.957Z,21.71
2022-07-29T03:59:08.434Z,21.74
2022-07-29T04:01:36.119Z,21.80
2022-07-29T04:04:04.882Z,21.83
2022-07-29T04:06:41.954Z,21.85
2022-07-29T04:09:10.106Z,21.84
2022-07-29T04:12:01.795Z,21.85
2022-07-29T04:14:26.620Z,21.87
2022-07-29T04:16:54.120Z,21.90
2022-07-29T04:19:21.264Z,21.95
2022-07-29T04:21:48.667Z,21.88
2022-07-29T04:24:16.147Z,21.91
2022-07-29T04:26:43.713Z,21.97
2022-07-29T04:29:12.936Z,21.97
2022-07-29T04:31:40.115Z,22.01
2022-07-29T04:34:07.724Z,22.10
2022-07-29T04:36:38.080Z,22.07
2022-07-29T04:39:05.437Z,22.15
2022-07-29T04:41:33.129Z,22.17
2022-07-29T04:44:06.930Z,22.28
2022-07-29T04:46:35.257Z,22.26
2022-07-29T04:49:04.029Z,22.36
2022-07-29T04:51:31.392Z,22.47
2022-07-29T04:53:58.535Z,22.63
2022-07-29T04:56:26.062Z,22.82
2022-07-29T04:58:53.300Z,23.03
2022-07-29T05:01:20.803Z,23.17
2022-07-29T05:03:48.329Z,23.39
2022-07-29T05:06:15.570Z,23.57
2022-07-29T05:08:42.700Z,23.61
2022-07-29T05:11:11.485Z,23.67
2022-07-29T05:13:46.025Z,23.69
2022-07-29T05:16:15.120Z,23.69
2022-07-29T05:18:43.289Z,23.66
2022-07-29T05:21:10.554Z,23.69
2022-07-29T05:23:37.937Z,23.79
2022-07-29T05:26:05.083Z,23.89
2022-07-29T05:28:38.892Z,24.00
2022-07-29T05:31:06.391Z,24.16
2022-07-29T05:33:35.270Z,24.25
2022-07-29T05:36:08.338Z,24.24
2022-07-29T05:38:36.865Z,24.35
2022-07-29T05:41:05.303Z,24.46
2022-07-29T05:43:33.025Z,24.50
2022-07-29T05:46:00.631Z,24.63
2022-07-29T05:48:27.903Z,24.77
2022-07-29T05:50:55.467Z,24.86
2022-07-29T05:53:23.358Z,25.02
2022-07-29T05:55:50.661Z,25.11
2022-07-29T05:58:17.747Z,25.27
2022-07-29T06:00:45.482Z,25.43
2022-07-29T06:03:13.359Z,25.55
2022-07-29T06:05:40.937Z,25.52
2022-07-29T06:08:08.573Z,25.63
2022-07-29T06:10:36.795Z,25.84
2022-07-29T06:13:04.242Z,26.03
2022-07-29T06:15:31.518Z,26.17
2022-07-29T06:18:00.427Z,26.39
2022-07-29T06:20:32.711Z,26.57
2022-07-29T06:23:00.954Z,26.77
2022-07-29T06:25:31.789Z,26.80
2022-07-29T06:27:59.027Z,26.79
2022-07-29T06:30:29.852Z,27.09
2022-07-29T06:32:57.050Z,26.93
2022-07-29T06:35:38.973Z,26.70
2022-07-29T06:38:25.153Z,26.68
2022-07-29T06:41:04.677Z,26.91
2022-07-29T06:43:50.428Z,26.90
2022-07-29T06:46:20.318Z,26.98
2022-07-29T06:48:51.275Z,26.85
2022-07-29T06:51:22.760Z,26.55
2022-07-29T06:53:58.174Z,26.36
2022-07-29T06:56:29.329Z,26.43
2022-07-29T06:58:56.792Z,26.54
2022-07-29T07:01:24.030Z,26.81
2022-07-29T07:03:51.331Z,27.02
2022-07-29T07:06:18.832Z,27.18
2022-07-29T07:08:45.963Z,27.40
2022-07-29T07:11:13.159Z,27.55
2022-07-29T07:13:40.613Z,27.77
2022-07-29T07:16:07.736Z,28.00
2022-07-29T07:18:34.873Z,28.17
2022-07-29T07:21:02.324Z,28.31
2022-07-29T07:23:29.383Z,28.23
2022-07-29T07:25:56.462Z,28.38
2022-07-29T07:28:24.635Z,28.68
2022-07-29T07:30:53.090Z,28.70
2022-07-29T07:33:20.322Z,28.88
2022-07-29T07:35:48.073Z,28.85
2022-07-29T07:38:15.160Z,29.01
2022-07-29T07:40:42.733Z,29.01
2022-07-29T07:43:10.149Z,28.92
2022-07-29T07:45:38.460Z,29.27
2022-07-29T07:48:06.134Z,29.16
2022-07-29T07:50:33.630Z,29.44
2022-07-29T07:53:03.152Z,29.60
2022-07-29T07:55:42.458Z,29.70
2022-07-29T07:58:17.822Z,29.79
2022-07-29T08:00:45.075Z,30.07
2022-07-29T08:03:16.828Z,30.28
2022-07-29T08:05:45.019Z,30.39
2022-07-29T08:08:12.441Z,30.61
2022-07-29T08:10:57.122Z,30.65
2022-07-29T08:13:26.662Z,30.81
2022-07-29T08:16:01.234Z,30.88
2022-07-29T08:18:30.587Z,30.95
2022-07-29T08:20:58.499Z,31.06
2022-07-29T08:23:32.820Z,31.09
2022-07-29T08:26:13.948Z,30.93
2022-07-29T08:28:46.853Z,31.08
2022-07-29T08:31:15.058Z,31.06
2022-07-29T08:33:42.901Z,31.20
2022-07-29T08:36:10.663Z,31.45
2022-07-29T08:38:38.120Z,31.61
2022-07-29T08:41:05.753Z,31.52
2022-07-29T08:43:33.167Z,31.55
2022-07-29T08:46:01.625Z,31.48
2022-07-29T08:48:28.773Z,31.67
2022-07-29T08:50:57.427Z,31.96
2022-07-29T08:53:27.793Z,31.99
2022-07-29T08:55:55.743Z,31.97
2022-07-29T08:58:24.711Z,31.92
2022-07-29T09:00:56.439Z,31.87
2022-07-29T09:03:26.742Z,31.89
2022-07-29T09:05:54.596Z,31.93
2022-07-29T09:08:22.208Z,31.90
2022-07-29T09:10:50.243Z,31.94
2022-07-29T09:13:17.899Z,31.89
2022-07-29T09:15:45.779Z,31.90
2022-07-29T09:18:19.478Z,32.11
2022-07-29T09:21:17.306Z,32.19
2022-07-29T09:24:12.780Z,32.22
2022-07-29T09:26:44.594Z,32.22
2022-07-29T09:29:13.806Z,32.10
2022-07-29T09:31:43.769Z,32.18
2022-07-29T09:34:14.644Z,32.21
2022-07-29T09:36:49.958Z,32.34
2022-07-29T09:39:28.708Z,32.44
2022-07-29T09:41:58.365Z,32.51
2022-07-29T09:44:27.091Z,32.65
2022-07-29T09:47:09.447Z,32.76
2022-07-29T09:49:53.418Z,32.91
2022-07-29T09:52:20.735Z,32.94
2022-07-29T09:54:48.534Z,32.96
2022-07-29T09:57:30.803Z,33.08
2022-07-29T10:00:02.425Z,33.23
2022-07-29T10:02:40.830Z,33.39
2022-07-29T10:05:26.876Z,33.50
2022-07-29T10:08:03.741Z,33.58
2022-07-29T10:10:34.830Z,33.49
2022-07-29T10:13:11.029Z,33.41
2022-07-29T10:15:47.415Z,33.56
2022-07-29T10:18:15.663Z,33.57
2022-07-29T10:20:43.152Z,33.60
2022-07-29T10:23:10.689Z,33.60
2022-07-29T10:25:38.019Z,33.79
2022-07-29T10:28:06.678Z,33.97
2022-07-29T10:30:33.860Z,34.19
2022-07-29T10:33:19.617Z,34.39
2022-07-29T10:36:19.513Z,34.43
2022-07-29T10:39:11.191Z,34.34
2022-07-29T10:42:13.167Z,34.53
2022-07-29T10:44:44.679Z,34.79
2022-07-29T10:47:22.236Z,35.22
2022-07-29T10:50:01.296Z,35.61
2022-07-29T10:52:50.916Z,35.66
2022-07-29T10:55:43.219Z,35.47
2022-07-29T10:58:19.541Z,35.55
2022-07-29T11:00:49.377Z,35.89
2022-07-29T11:03:50.719Z,36.27
2022-07-29T11:06:26.319Z,36.43
2022-07-29T11:09:18.366Z,36.93
2022-07-29T11:11:51.517Z,36.72
2022-07-29T11:14:53.444Z,35.92
2022-07-29T11:17:20.649Z,35.68
2022-07-29T11:19:51.970Z,35.84
2022-07-29T11:22:36.054Z,36.15
2022-07-29T11:25:17.390Z,36.47
2022-07-29T11:27:48.051Z,36.38
2022-07-29T11:30:15.566Z,36.07
2022-07-29T11:32:45.054Z,35.61
2022-07-29T11:35:38.500Z,35.82
2022-07-29T11:38:23.723Z,36.47
2022-07-29T11:41:27.324Z,37.10
2022-07-29T11:43:56.430Z,37.79
2022-07-29T11:46:43.971Z,38.05
2022-07-29T11:49:11.652Z,38.53
2022-07-29T11:51:48.099Z,38.76
2022-07-29T11:54:18.248Z,39.23
2022-07-29T11:56:55.040Z,39.44
2022-07-29T11:59:22.296Z,40.01
2022-07-29T12:02:25.522Z,39.72
2022-07-29T12:04:55.384Z,39.16
2022-07-29T12:07:35.040Z,39.44
2022-07-29T12:10:04.623Z,39.91
2022-07-29T12:12:34.736Z,40.17
2022-07-29T12:15:14.251Z,40.31
2022-07-29T12:17:43.066Z,40.75
2022-07-29T12:20:10.336Z,41.13
2022-07-29T12:22:44.465Z,41.22
2022-07-29T12:25:32.974Z,41.43
2022-07-29T12:28:02.679Z,41.07
2022-07-29T12:30:41.805Z,40.02
2022-07-29T12:33:16.369Z,38.85
2022-07-29T12:35:58.056Z,38.05
2022-07-29T12:38:30.971Z,37.93
2022-07-29T12:40:58.657Z,38.64
2022-07-29T12:43:26.567Z,38.49
2022-07-29T12:45:55.584Z,37.98
2022-07-29T12:48:41.050Z,37.28
2022-07-29T12:51:09.840Z,37.14
2022-07-29T12:53:37.670Z,37.89
2022-07-29T12:56:20.579Z,38.71
2022-07-29T12:58:51.313Z,39.31
2022-07-29T13:01:20.984Z,38.98
2022-07-29T13:04:01.519Z,38.69
2022-07-29T13:06:49.609Z,37.99
2022-07-29T13:09:20.727Z,37.10
2022-07-29T13:11:50.373Z,37.58
2022-07-29T13:14:33.595Z,38.33
2022-07-29T13:17:08.781Z,39.37
2022-07-29T13:19:37.422Z,40.09
2022-07-29T13:22:05.361Z,40.06
2022-07-29T13:24:32.461Z,40.90
2022-07-29T13:27:00.409Z,41.31
2022-07-29T13:29:31.464Z,41.86
2022-07-29T13:31:59.426Z,42.25
2022-07-29T13:34:26.898Z,42.49
2022-07-29T13:36:54.476Z,42.53
2022-07-29T13:39:21.593Z,42.62
2022-07-29T13:41:48.667Z,42.57
2022-07-29T13:44:16.645Z,42.39
2022-07-29T13:46:43.707Z,42.49
2022-07-29T13:49:12.336Z,42.49
2022-07-29T13:51:39.949Z,42.61
2022-07-29T13:54:07.014Z,42.62
2022-07-29T13:56:35.071Z,42.93
2022-07-29T13:59:02.773Z,42.97
2022-07-29T14:01:31.389Z,43.08
2022-07-29T14:03:58.898Z,42.20
2022-07-29T14:06:26.019Z,41.99
2022-07-29T14:08:53.103Z,42.08
2022-07-29T14:11:20.819Z,42.03
2022-07-29T14:13:47.941Z,41.07
2022-07-29T14:16:16.069Z,41.26
2022-07-29T14:18:43.616Z,40.84
2022-07-29T14:21:10.738Z,41.09
2022-07-29T14:23:38.314Z,41.57
2022-07-29T14:26:15.815Z,41.77
2022-07-29T14:28:44.752Z,41.97
2022-07-29T14:31:12.178Z,41.98
2022-07-29T14:33:39.470Z,41.79
2022-07-29T14:36:06.581Z,41.90
2022-07-29T14:38:33.961Z,41.43
2022-07-29T14:41:01.753Z,41.42
2022-07-29T14:43:30.017Z,41.53
2022-07-29T14:46:02.886Z,41.49
2022-07-29T14:48:31.219Z,41.52
2022-07-29T14:51:04.578Z,41.07
2022-07-29T14:53:32.838Z,40.98
2022-07-29T14:56:10.326Z,40.89
2022-07-29T14:58:49.170Z,40.80
2022-07-29T15:01:19.619Z,40.47
2022-07-29T15:03:46.835Z,40.08
2022-07-29T15:06:13.988Z,39.91
2022-07-29T15:08:41.528Z,39.76
2022-07-29T15:11:08.844Z,39.66
2022-07-29T15:13:36.022Z,39.33
2022-07-29T15:16:03.669Z,38.92
2022-07-29T15:18:31.067Z,38.93
2022-07-29T15:20:59.206Z,38.64
2022-07-29T15:23:26.562Z,38.46
2022-07-29T15:25:53.653Z,38.39
2022-07-29T15:28:20.739Z,37.98
2022-07-29T15:30:48.263Z,37.78
2022-07-29T15:33:15.328Z,37.67
2022-07-29T15:35:42.405Z,37.42
2022-07-29T15:38:09.802Z,37.32
2022-07-29T15:40:39.071Z,36.91
2022-07-29T15:43:06.881Z,36.68
2022-07-29T15:45:40.370Z,36.59
2022-07-29T15:48:09.189Z,36.21
2022-07-29T15:50:36.591Z,35.94
2022-07-29T15:53:03.960Z,35.77
2022-07-29T15:55:31.074Z,35.47
2022-07-29T15:58:00.665Z,34.91
2022-07-29T16:00:28.120Z,34.50
2022-07-29T16:02:56.888Z,34.19
2022-07-29T16:05:24.064Z,33.98
2022-07-29T16:07:51.151Z,33.85
2022-07-29T16:10:18.557Z,33.61
2022-07-29T16:12:45.658Z,33.43
2022-07-29T16:15:12.834Z,33.49
2022-07-29T16:17:40.261Z,33.65
2022-07-29T16:20:08.135Z,33.82
2022-07-29T16:22:35.249Z,33.94
2022-07-29T16:25:03.011Z,33.81
2022-07-29T16:27:31.328Z,33.62
2022-07-29T16:30:06.970Z,33.58
2022-07-29T16:32:34.617Z,33.46
2022-07-29T16:35:02.958Z,33.27
2022-07-29T16:37:33.754Z,33.01
2022-07-29T16:40:01.581Z,32.79
2022-07-29T16:42:45.529Z,32.61
2022-07-29T16:45:15.065Z,32.44
2022-07-29T16:47:42.577Z,32.30
2022-07-29T16:50:09.820Z,32.20
2022-07-29T16:52:38.215Z,32.13
2022-07-29T16:55:05.913Z,32.02
2022-07-29T16:57:33.142Z,31.94
2022-07-29T17:00:00.537Z,31.85
2022-07-29T17:02:27.727Z,31.78
2022-07-29T17:04:55.029Z,31.68
2022-07-29T17:07:22.467Z,31.60
2022-07-29T17:09:53.846Z,31.49
2022-07-29T17:12:22.756Z,31.44
2022-07-29T17:14:49.839Z,31.32
2022-07-29T17:17:20.923Z,31.23
2022-07-29T17:20:05.557Z,31.17
2022-07-29T17:22:32.733Z,31.11
2022-07-29T17:24:59.804Z,31.09
2022-07-29T17:27:28.391Z,31.05
2022-07-29T17:29:55.552Z,31.03
2022-07-29T17:32:22.677Z,30.96
2022-07-29T17:34:50.297Z,30.91
2022-07-29T17:37:17.438Z,30.84
2022-07-29T17:39:44.613Z,30.79
2022-07-29T17:42:13.938Z,30.71
2022-07-29T17:44:41.511Z,30.64
2022-07-29T17:47:15.554Z,30.56
2022-07-29T17:49:45.071Z,30.42
2022-07-29T17:52:12.179Z,30.26
2022-07-29T17:54:39.253Z,30.14
2022-07-29T17:57:06.680Z,29.98
2022-07-29T17:59:33.754Z,29.87
2022-07-29T18:02:03.817Z,29.73
2022-07-29T18:04:31.591Z,29.61
2022-07-29T18:06:58.894Z,29.52
2022-07-29T18:09:26.172Z,29.38
2022-07-29T18:11:53.529Z,29.28
2022-07-29T18:14:20.681Z,29.18
2022-07-29T18:16:47.783Z,29.12
2022-07-29T18:19:16.171Z,28.98
2022-07-29T18:21:51.039Z,28.89
2022-07-29T18:24:27.531Z,28.78
2022-07-29T18:26:54.815Z,28.64
2022-07-29T18:29:22.373Z,28.54
2022-07-29T18:31:50.133Z,28.38
2022-07-29T18:34:17.342Z,28.29
2022-07-29T18:36:45.851Z,28.22
2022-07-29T18:39:20.619Z,28.14
2022-07-29T18:41:51.272Z,28.06
2022-07-29T18:44:22.101Z,27.99
2022-07-29T18:46:51.860Z,27.95
2022-07-29T18:49:19.573Z,27.89
2022-07-29T18:51:46.902Z,27.86
2022-07-29T18:54:14.481Z,27.84
2022-07-29T18:56:41.608Z,27.82
2022-07-29T18:59:08.754Z,27.77
2022-07-29T19:01:37.839Z,27.72
2022-07-29T19:04:05.308Z,27.70
2022-07-29T19:06:32.403Z,27.71
2022-07-29T19:09:00.173Z,27.71
2022-07-29T19:11:27.377Z,27.70
2022-07-29T19:13:54.479Z,27.63
2022-07-29T19:16:21.896Z,27.58
2022-07-29T19:18:49.111Z,27.56
2022-07-29T19:21:16.195Z,27.55
2022-07-29T19:24:01.548Z,27.51
2022-07-29T19:26:36.298Z,27.50
2022-07-29T19:29:04.362Z,27.45
2022-07-29T19:31:31.650Z,27.39
2022-07-29T19:33:59.230Z,27.39
2022-07-29T19:36:27.331Z,27.34
2022-07-29T19:38:54.496Z,27.33
2022-07-29T19:41:21.610Z,27.28
2022-07-29T19:43:50.530Z,27.13
2022-07-29T19:46:21.591Z,27.01
2022-07-29T19:48:49.952Z,27.01
2022-07-29T19:51:17.464Z,26.96
2022-07-29T19:53:44.561Z,26.94
2022-07-29T19:56:12.051Z,26.89
2022-07-29T19:58:40.798Z,26.81
2022-07-29T20:01:10.340Z,26.74
2022-07-29T20:03:41.124Z,26.63
2022-07-29T20:06:08.602Z,26.58
2022-07-29T20:08:35.837Z,26.54
2022-07-29T20:11:03.458Z,26.54
2022-07-29T20:13:33.054Z,26.52
2022-07-29T20:16:01.221Z,26.48
2022-07-29T20:18:28.686Z,26.49
2022-07-29T20:20:57.478Z,26.48
2022-07-29T20:23:24.643Z,26.54
2022-07-29T20:25:52.041Z,26.48
2022-07-29T20:28:21.178Z,26.55
2022-07-29T20:30:48.537Z,26.48
2022-07-29T20:33:16.700Z,26.54
2022-07-29T20:35:43.908Z,26.54
2022-07-29T20:38:13.933Z,26.51
2022-07-29T20:40:45.539Z,26.43
2022-07-29T20:43:12.696Z,26.42
2022-07-29T20:45:39.956Z,26.37
2022-07-29T20:48:08.328Z,26.24
2022-07-29T20:50:35.972Z,26.18
2022-07-29T20:53:03.264Z,26.05
2022-07-29T20:55:32.057Z,26.04
2022-07-29T20:57:59.251Z,25.90
2022-07-29T21:00:26.468Z,25.98
2022-07-29T21:02:54.112Z,25.99
2022-07-29T21:05:21.269Z,26.02
2022-07-29T21:07:48.400Z,26.02
2022-07-29T21:10:18.207Z,25.96
2022-07-29T21:12:48.292Z,25.91
2022-07-29T21:15:16.332Z,25.92
2022-07-29T21:17:47.191Z,25.97
2022-07-29T21:20:15.592Z,25.91
2022-07-29T21:22:43.690Z,25.76
2022-07-29T21:25:11.490Z,25.70
2022-07-29T21:27:57.122Z,25.68
2022-07-29T21:30:24.530Z,25.57
2022-07-29T21:32:51.682Z,25.57
2022-07-29T21:36:02.136Z,25.54
2022-07-29T21:38:06.164Z,25.41
2022-07-29T21:40:33.220Z,25.35
2022-07-29T21:43:00.297Z,25.35
2022-07-29T21:45:27.751Z,25.26
2022-07-29T21:47:54.851Z,25.23
2022-07-29T21:50:21.948Z,25.18
2022-07-29T21:52:49.349Z,25.04
2022-07-29T21:55:16.421Z,25.05
2022-07-29T21:57:46.391Z,25.00
2022-07-29T22:00:16.751Z,24.86
2022-07-29T22:02:44.739Z,24.77
2022-07-29T22:05:12.355Z,24.75
2022-07-29T22:07:56.541Z,24.77
2022-07-29T22:10:26.046Z,24.77
2022-07-29T22:12:54.164Z,24.71
2022-07-29T22:15:21.611Z,24.66
2022-07-29T22:17:49.085Z,24.58
2022-07-29T22:20:16.266Z,24.55
2022-07-29T22:22:43.316Z,24.53
2022-07-29T22:25:11.187Z,24.49
2022-07-29T22:27:38.863Z,24.41
2022-07-29T22:30:07.657Z,24.38
2022-07-29T22:32:35.165Z,24.36
2022-07-29T22:35:02.250Z,24.33
2022-07-29T22:37:29.365Z,24.31
2022-07-29T22:39:56.834Z,24.25
2022-07-29T22:42:24.142Z,24.26
2022-07-29T22:44:51.489Z,24.16
2022-07-29T22:47:18.871Z,24.05
2022-07-29T22:50:06.655Z,24.09
2022-07-29T22:52:34.031Z,24.04
2022-07-29T22:55:01.123Z,24.01
2022-07-29T22:57:28.380Z,24.02
2022-07-29T22:59:55.749Z,24.00
2022-07-29T23:02:22.817Z,23.95
2022-07-29T23:04:49.887Z,23.88
2022-07-29T23:07:17.722Z,23.77
2022-07-29T23:09:44.855Z,23.78
2022-07-29T23:12:11.914Z,23.74
2022-07-29T23:14:39.409Z,23.74
2022-07-29T23:17:06.628Z,23.68
2022-07-29T23:19:33.801Z,23.65
2022-07-29T23:22:01.179Z,23.60
2022-07-29T23:24:28.282Z,23.60
2022-07-29T23:26:55.430Z,23.50
2022-07-29T23:29:22.830Z,23.50
2022-07-29T23:31:49.953Z,23.40
2022-07-29T23:34:17.135Z,23.41
2022-07-29T23:36:44.499Z,23.40
2022-07-29T23:39:12.317Z,23.34
2022-07-29T23:41:39.591Z,23.29
2022-07-29T23:44:07.294Z,23.34
2022-07-29T23:46:34.462Z,23.29
2022-07-29T23:49:01.652Z,23.23
2022-07-29T23:51:29.246Z,23.23
2022-07-29T23:53:56.568Z,23.27
2022-07-29T23:56:23.897Z,23.29
2022-07-29T23:58:51.328Z,23.25
